East Jewett, New York
Current Conditions -  °F | °C
As of 5:51 AM on Thursday 18 Dec 2014 (Local Time) from KALB Reporting Station
Light Snow Light Snow  
Wind Chill: -3°   Ceiling: 2400
Heat Index:   Visibility: 10mi
Dew Point: -3°   Wind: 14mph
Humidity: 72%   Direction: 300°WNW
Pressure: 29.88"   Gusts: NA
Location:  42.23°N, 74.15°W
Report Text: KALB 181051Z 30012KT 10SM -SN OVC024 02/M03 A2988 RMK AO2 SLP119 PCPN VRY LGT P0000 T00171028
Loading
Personal Weather Stations






























Interactive Weather Map New forecast layout! Learn more

10-Day Weather Forecast

Advertisements
Track Severe Weather on mobile